Featured Flight

MET5760 - Boston to Baltimore

Embraer ERJ-170LR
N920AU
1 hr 15 mins
321 nm
Scheduled - Daily

Bid/PiRep Status

Bid was submitted on Jan 02 2017.

PiRep # 74599: Approved by Sean Doyle on January 4th, 2017 23:10 UTC

Departure

Departing from
Boston (BOS)
Departure gate
Scheduled Departure
GMT 2215
Local 1715
METAR KBOS 222354Z 06017KT 1 1/2SM -RA OVC013 04/03 A2993 RMK AO2 SFC VIS 7 SLP135 P0000 60004 T00440033 10078 20044 53024
TAF KBOS 222152Z 2222/2324 05015KT 1 1/2SM -RA BR OVC005 FM230500 06011G25KT P6SM OVC015 FM231000 06014G29KT P6SM OVC025 FM231500 07019G36KT P6SM VCSH OVC020
  • No charts available

Arrival

Arriving at
Baltimore (BWI)
Arrival gate
Scheduled Arrival
GMT 2330
Local 1830
METAR KBWI 222354Z 05009KT 8SM OVC005 09/09 A2964 RMK AO2 RAE53 SLP039 P0000 60005 T00940094 10106 20094 53002
TAF KBWI 222328Z 2300/2406 05009KT 5SM -RA OVC006 FM230400 07012G22KT 1 1/2SM -RA OVC003 FM231100 07021G40KT 2SM RA OVC003 FM231700 07017G37KT 1SM RA OVC008 FM240000 05012KT 2SM -SHRA OVC008 FM240400 02008KT 1SM -SHRA OVC008

Route Map

Planning Resources

PUT,JFK,COL,VCN,ENO
BURDY SEY HTO HOFFI SHLEP CREEL JOANI RBV COPES MXE STOEN SACRI
PATSS1.DEDHM DEDHM NELIE CMK J75 MXE V378 BAL
KBOS OOD PUT HFD PACER RBV OOD KBWI
PATSS2 PATSS NELIE CMK J75 MXE V378 BAL
Route:
OFP Layout:
Units:
Detailed Navlog:
ETOPS Planning:
Plan Stepclimbs:
Runway Analysis:
Include NOTAMS:
FIR NOTAMS:
Flight Maps:

Return Flights

MET761
Airbus A321-232
0930 GMT
MET765
Airbus A321-232
0300 GMT
MET5689
Embraer ERJ-170LR
0100 GMT
MET5691
Embraer ERJ-170LR
1700 GMT
MET5759
Embraer ERJ-170LR
2030 GMT
MET5763
Embraer ERJ-170LR
1300 GMT

Popularity

Hub Current Bids PiReps this month Total PiReps
KMCI 0 0 1
KLAX 0 0 0
KBOS 0 1 1